CWUW

Dewar Lakes  Airport

Canada

CWUW 241600Z AUTO 09021G27KT ////SM //// BKN004 OVC021 M07/M08 A2928

Observed Flight Rules
Nov-24 @ 16:00 UTC (42 minutes ago)
Unavailable
Wind Clouds
90° at 21 knots
 Gusting to 27 knots
  • Broken at 400' AGL
  • Overcast at 2,100' AGL
Temperatures Readings
Current -7°C / 19°F
Dewpoint -8°C / 18°F
Humidity 93%
Altimeter 29.28" Hg
Pressure 992 hPa
Elevation 527
Observed Flight Rules
Nov-24 @ 16:00 UTC
(42 minutes ago)
UNK
Wind
90° at 21 knots
 Gusting to 27 knots
Clouds
  • Broken at 400' AGL
  • Overcast at 2,100' AGL
Temperature Dewpoint
-7°C / 19°F -8°C / 18°F
Humidity Altimeter Pressure
93% 29.28" Hg 992 hPa